Time;durP1;ratioP1;P1;durP2;ratioP2;P2;SDS_P1;SDS_P2;PMS_P1;PMS_P2;Temp;Humidity;BMP_temperature;BMP_pressure;BME280_temperature;BME280_humidity;BME280_pressure;Samples;Min_cycle;Max_cycle;Signal;HPM_P1;HPM_P2
2023/04/26 00:00:10;;;;;;;10.68;4.30;;;;;;;;;;5133498;28;20179;-68
2023/04/26 00:02:38;;;;;;;12.52;4.85;;;;;;;;;;5135859;27;20204;-69
2023/04/26 00:05:08;;;;;;;5.25;4.45;;;;;;;;;;5137195;27;20240;-69
2023/04/26 00:07:36;;;;;;;7.72;4.32;;;;;;;;;;5137652;27;20548;-68
2023/04/26 00:10:03;;;;;;;7.60;3.97;;;;;;;;;;5137046;27;20192;-69
2023/04/26 00:12:31;;;;;;;9.52;4.63;;;;;;;;;;5137283;27;20227;-68
2023/04/26 00:14:58;;;;;;;11.05;5.05;;;;;;;;;;5137382;27;20202;-69
2023/04/26 00:17:25;;;;;;;14.10;5.22;;;;;;;;;;5137774;27;20224;-69
2023/04/26 00:19:52;;;;;;;12.35;4.43;;;;;;;;;;5137932;27;20595;-69
2023/04/26 00:22:21;;;;;;;9.95;4.30;;;;;;;;;;5137409;27;20601;-68
2023/04/26 00:24:48;;;;;;;7.82;4.65;;;;;;;;;;5137402;27;20191;-68
2023/04/26 00:27:15;;;;;;;5.95;4.55;;;;;;;;;;5137180;27;20195;-69
2023/04/26 00:29:42;;;;;;;4.40;3.80;;;;;;;;;;5138022;27;20190;-68
2023/04/26 00:32:09;;;;;;;9.98;5.03;;;;;;;;;;5137011;27;20231;-68
2023/04/26 00:34:37;;;;;;;7.20;4.15;;;;;;;;;;5136916;27;20645;-68
2023/04/26 00:37:05;;;;;;;10.20;5.05;;;;;;;;;;5136946;27;20223;-69
2023/04/26 00:39:33;;;;;;;13.75;5.32;;;;;;;;;;5136973;27;20549;-69
2023/04/26 00:42:01;;;;;;;5.80;4.30;;;;;;;;;;5136494;27;20660;-69
2023/04/26 00:44:28;;;;;;;10.23;4.93;;;;;;;;;;5136420;27;20712;-69
2023/04/26 00:46:55;;;;;;;14.48;5.35;;;;;;;;;;5136660;27;20200;-69
2023/04/26 00:49:24;;;;;;;6.63;4.30;;;;;;;;;;5136609;27;20329;-69
2023/04/26 00:51:52;;;;;;;10.93;6.00;;;;;;;;;;5136760;27;20195;-69
2023/04/26 00:54:20;;;;;;;7.45;4.93;;;;;;;;;;5136718;27;20285;-69
2023/04/26 00:56:50;;;;;;;8.45;4.70;;;;;;;;;;5136570;27;20203;-69
2023/04/26 00:59:18;;;;;;;5.50;4.40;;;;;;;;;;5137027;27;20182;-69
2023/04/26 01:01:47;;;;;;;9.30;4.88;;;;;;;;;;5136367;27;20604;-69
2023/04/26 01:04:14;;;;;;;8.90;4.75;;;;;;;;;;5136166;27;20194;-69
2023/04/26 01:06:42;;;;;;;15.00;5.13;;;;;;;;;;5136194;27;20539;-69
2023/04/26 01:09:11;;;;;;;10.10;4.80;;;;;;;;;;5136589;27;20563;-69
2023/04/26 01:11:38;;;;;;;10.88;5.10;;;;;;;;;;5136315;27;20615;-69
2023/04/26 01:14:07;;;;;;;8.32;4.63;;;;;;;;;;5135421;27;20668;-69
2023/04/26 01:16:35;;;;;;;12.93;5.03;;;;;;;;;;5135977;27;20247;-69
2023/04/26 01:19:09;;;;;;;5.93;4.40;;;;;;;;;;5136307;27;20195;-69
2023/04/26 01:21:37;;;;;;;8.88;5.00;;;;;;;;;;5136542;27;20191;-68
2023/04/26 01:24:06;;;;;;;10.27;5.88;;;;;;;;;;5136728;27;20202;-69
2023/04/26 01:26:33;;;;;;;6.72;5.30;;;;;;;;;;5136134;27;20194;-68
2023/04/26 01:29:00;;;;;;;9.80;4.50;;;;;;;;;;5136026;27;20189;-69
2023/04/26 01:31:27;;;;;;;9.90;5.35;;;;;;;;;;5135570;27;20232;-68
2023/04/26 01:33:54;;;;;;;11.00;5.18;;;;;;;;;;5135825;27;20223;-69
2023/04/26 01:36:22;;;;;;;9.15;4.55;;;;;;;;;;5135305;27;20653;-69
2023/04/26 01:38:49;;;;;;;7.53;5.32;;;;;;;;;;5135452;27;20203;-68
2023/04/26 01:41:17;;;;;;;8.85;4.97;;;;;;;;;;5135582;27;20746;-69
2023/04/26 01:43:44;;;;;;;8.05;5.30;;;;;;;;;;5135961;27;20206;-69
2023/04/26 01:46:12;;;;;;;8.80;4.80;;;;;;;;;;5135489;27;20195;-68
2023/04/26 01:48:39;;;;;;;11.75;5.88;;;;;;;;;;5135510;27;20191;-69
2023/04/26 01:51:06;;;;;;;6.18;4.43;;;;;;;;;;5135176;27;20233;-69
2023/04/26 01:53:33;;;;;;;7.25;6.55;;;;;;;;;;5135202;27;20216;-69
2023/04/26 01:56:01;;;;;;;9.95;5.95;;;;;;;;;;5135013;27;20207;-68
2023/04/26 01:58:30;;;;;;;9.40;4.93;;;;;;;;;;5135226;27;20203;-69
2023/04/26 02:00:57;;;;;;;9.50;5.07;;;;;;;;;;5135412;27;20198;-69
2023/04/26 02:03:24;;;;;;;6.93;5.18;;;;;;;;;;5135202;27;20284;-68
2023/04/26 02:05:52;;;;;;;10.05;5.40;;;;;;;;;;5135358;27;20197;-69
2023/04/26 02:08:19;;;;;;;9.95;5.47;;;;;;;;;;5134983;27;20194;-68
2023/04/26 02:10:46;;;;;;;19.90;5.63;;;;;;;;;;5134821;27;20199;-68
2023/04/26 02:13:13;;;;;;;5.90;5.00;;;;;;;;;;5134560;27;20215;-68
2023/04/26 02:15:42;;;;;;;11.65;5.95;;;;;;;;;;5134659;27;20659;-69
2023/04/26 02:18:10;;;;;;;7.43;6.00;;;;;;;;;;5135145;27;20182;-69
2023/04/26 02:20:38;;;;;;;8.02;4.80;;;;;;;;;;5135141;27;20648;-69
2023/04/26 02:23:05;;;;;;;11.55;6.38;;;;;;;;;;5134622;27;20203;-68
2023/04/26 02:25:32;;;;;;;9.60;5.68;;;;;;;;;;5134756;27;20612;-69
2023/04/26 02:28:00;;;;;;;11.55;6.82;;;;;;;;;;5135324;27;20196;-69
2023/04/26 02:30:27;;;;;;;8.98;5.85;;;;;;;;;;5135530;27;20270;-69
2023/04/26 02:32:56;;;;;;;14.20;5.70;;;;;;;;;;5134762;27;20236;-69
2023/04/26 02:35:23;;;;;;;7.55;5.35;;;;;;;;;;5134783;27;20200;-68
2023/04/26 02:37:51;;;;;;;11.18;5.63;;;;;;;;;;5134615;27;20200;-69
2023/04/26 02:40:19;;;;;;;9.27;5.55;;;;;;;;;;5134728;27;20194;-69
2023/04/26 02:42:46;;;;;;;11.93;6.65;;;;;;;;;;5134627;27;20225;-69
2023/04/26 02:45:13;;;;;;;10.75;6.03;;;;;;;;;;5134555;27;20190;-69
2023/04/26 02:47:40;;;;;;;8.05;5.85;;;;;;;;;;5134622;27;20195;-69
2023/04/26 02:50:10;;;;;;;14.90;5.82;;;;;;;;;;5134478;27;20200;-69
2023/04/26 02:52:37;;;;;;;8.15;6.05;;;;;;;;;;5134098;27;20206;-68
2023/04/26 02:55:05;;;;;;;14.40;6.80;;;;;;;;;;5134727;27;20198;-70
2023/04/26 02:57:32;;;;;;;14.43;6.03;;;;;;;;;;5134323;27;20682;-69
2023/04/26 03:00:00;;;;;;;10.15;6.03;;;;;;;;;;5134451;27;20245;-69
2023/04/26 03:02:27;;;;;;;10.70;7.00;;;;;;;;;;5133918;27;20194;-70
2023/04/26 03:04:54;;;;;;;11.32;6.90;;;;;;;;;;5134356;28;20652;-69
2023/04/26 03:07:23;;;;;;;9.52;6.35;;;;;;;;;;5134097;28;20202;-69
2023/04/26 03:09:50;;;;;;;11.05;6.18;;;;;;;;;;5134275;28;20219;-69
2023/04/26 03:12:17;;;;;;;13.38;7.50;;;;;;;;;;5134377;28;20195;-69
2023/04/26 03:14:44;;;;;;;9.27;6.93;;;;;;;;;;5133820;28;20314;-68
2023/04/26 03:17:12;;;;;;;11.57;6.60;;;;;;;;;;5134302;28;20226;-69
2023/04/26 03:19:39;;;;;;;17.63;7.57;;;;;;;;;;5134160;28;20559;-68
2023/04/26 03:22:06;;;;;;;12.23;6.32;;;;;;;;;;5134332;28;20286;-68
2023/04/26 03:24:35;;;;;;;12.32;7.03;;;;;;;;;;5133860;28;20248;-68
2023/04/26 03:27:02;;;;;;;8.30;6.75;;;;;;;;;;5134184;28;20281;-69
2023/04/26 03:29:29;;;;;;;14.32;7.30;;;;;;;;;;5134002;28;20194;-69
2023/04/26 03:31:56;;;;;;;11.50;6.65;;;;;;;;;;5134271;28;20644;-69
2023/04/26 03:34:23;;;;;;;11.07;6.63;;;;;;;;;;5133963;28;20221;-69
2023/04/26 03:36:51;;;;;;;11.77;6.82;;;;;;;;;;5135029;27;20195;-69
2023/04/26 03:39:18;;;;;;;10.07;7.03;;;;;;;;;;5138214;27;20199;-72
2023/04/26 03:41:47;;;;;;;14.95;7.55;;;;;;;;;;5138746;27;20555;-70
2023/04/26 03:44:14;;;;;;;11.98;6.65;;;;;;;;;;5138216;27;20201;-70
2023/04/26 03:46:42;;;;;;;14.10;7.93;;;;;;;;;;5137701;27;20205;-70
2023/04/26 03:49:09;;;;;;;15.30;8.15;;;;;;;;;;5137536;27;20195;-70
2023/04/26 03:51:36;;;;;;;17.13;7.63;;;;;;;;;;5137776;27;20194;-70
2023/04/26 03:54:03;;;;;;;11.55;7.15;;;;;;;;;;5137622;27;20591;-70
2023/04/26 03:56:30;;;;;;;13.95;7.18;;;;;;;;;;5137776;27;20655;-71
2023/04/26 03:58:59;;;;;;;9.27;6.80;;;;;;;;;;5136656;27;20204;-71
2023/04/26 04:01:27;;;;;;;12.70;7.57;;;;;;;;;;5137577;27;20202;-70
2023/04/26 04:03:54;;;;;;;15.15;7.05;;;;;;;;;;5137147;27;20199;-70
2023/04/26 04:06:21;;;;;;;14.57;7.38;;;;;;;;;;5137139;27;20194;-71
2023/04/26 04:08:48;;;;;;;8.45;7.30;;;;;;;;;;5136973;27;20205;-71
2023/04/26 04:11:16;;;;;;;13.57;8.02;;;;;;;;;;5137096;27;20648;-70
2023/04/26 04:13:43;;;;;;;9.82;7.15;;;;;;;;;;5136856;27;20721;-70
2023/04/26 04:16:12;;;;;;;17.40;6.85;;;;;;;;;;5137110;27;20237;-71
2023/04/26 04:18:39;;;;;;;9.80;7.20;;;;;;;;;;5137178;27;20553;-71
2023/04/26 04:21:06;;;;;;;15.02;8.38;;;;;;;;;;5136999;27;20540;-70
2023/04/26 04:23:33;;;;;;;13.27;7.70;;;;;;;;;;5136668;27;20207;-69
2023/04/26 04:26:00;;;;;;;14.15;8.43;;;;;;;;;;5137426;27;20203;-70
2023/04/26 04:28:28;;;;;;;17.75;8.00;;;;;;;;;;5136952;27;20199;-69
2023/04/26 04:30:57;;;;;;;16.05;9.10;;;;;;;;;;5137185;27;20563;-69
2023/04/26 04:33:27;;;;;;;13.73;7.20;;;;;;;;;;5136797;27;20679;-69
2023/04/26 04:35:54;;;;;;;10.48;7.72;;;;;;;;;;5137330;27;20247;-73
2023/04/26 04:38:22;;;;;;;15.30;7.90;;;;;;;;;;5137303;27;20202;-71
2023/04/26 04:40:49;;;;;;;9.32;8.30;;;;;;;;;;5136626;27;20283;-71
2023/04/26 04:43:17;;;;;;;15.75;7.85;;;;;;;;;;5136570;27;20190;-71
2023/04/26 04:45:44;;;;;;;12.70;8.05;;;;;;;;;;5136589;27;20652;-71
2023/04/26 04:48:12;;;;;;;12.30;7.28;;;;;;;;;;5136737;27;20193;-71
2023/04/26 04:50:40;;;;;;;13.52;8.18;;;;;;;;;;5136778;27;20205;-72
2023/04/26 04:53:08;;;;;;;15.70;7.75;;;;;;;;;;5136379;27;20193;-71
2023/04/26 04:55:36;;;;;;;13.45;7.57;;;;;;;;;;5136518;27;20294;-72
2023/04/26 04:58:03;;;;;;;13.18;6.90;;;;;;;;;;5136777;27;20201;-71
2023/04/26 05:00:31;;;;;;;12.43;8.10;;;;;;;;;;5136502;27;20197;-71
2023/04/26 05:02:58;;;;;;;14.40;7.93;;;;;;;;;;5136746;27;20196;-72
2023/04/26 05:05:25;;;;;;;12.27;7.57;;;;;;;;;;5136467;27;20199;-71
2023/04/26 05:07:54;;;;;;;11.23;8.60;;;;;;;;;;5136212;27;20192;-73
2023/04/26 05:10:21;;;;;;;16.58;8.40;;;;;;;;;;5136396;27;20640;-71
2023/04/26 05:12:48;;;;;;;12.27;8.75;;;;;;;;;;5136403;27;20563;-71
2023/04/26 05:15:15;;;;;;;13.55;8.60;;;;;;;;;;5136218;27;20226;-71
2023/04/26 05:17:43;;;;;;;13.40;8.15;;;;;;;;;;5136468;27;20228;-71
2023/04/26 05:20:10;;;;;;;13.65;6.78;;;;;;;;;;5136134;27;20289;-71
2023/04/26 05:22:38;;;;;;;12.45;7.97;;;;;;;;;;5136778;27;20244;-72
2023/04/26 05:25:08;;;;;;;12.05;7.90;;;;;;;;;;5136270;27;20233;-71
2023/04/26 05:27:36;;;;;;;8.98;6.60;;;;;;;;;;5136652;27;20190;-71
2023/04/26 05:30:03;;;;;;;11.57;6.75;;;;;;;;;;5136003;27;20207;-71
2023/04/26 05:32:31;;;;;;;10.80;6.80;;;;;;;;;;5135975;27;20604;-71
2023/04/26 05:34:58;;;;;;;13.38;8.02;;;;;;;;;;5136081;27;20249;-70
2023/04/26 05:37:25;;;;;;;13.18;8.07;;;;;;;;;;5135869;27;20201;-72
2023/04/26 05:39:52;;;;;;;13.57;8.02;;;;;;;;;;5135496;27;20204;-71
2023/04/26 05:42:21;;;;;;;12.10;7.13;;;;;;;;;;5135780;27;20604;-71
2023/04/26 05:44:48;;;;;;;9.48;6.60;;;;;;;;;;5135458;27;20294;-71
2023/04/26 05:47:15;;;;;;;16.38;6.85;;;;;;;;;;5135965;27;20219;-72
2023/04/26 05:49:42;;;;;;;13.10;6.95;;;;;;;;;;5135223;27;20201;-71
2023/04/26 05:52:09;;;;;;;9.63;6.45;;;;;;;;;;5135559;27;20194;-72
2023/04/26 05:54:37;;;;;;;9.98;7.43;;;;;;;;;;5135421;27;20214;-71
2023/04/26 05:57:04;;;;;;;16.45;8.05;;;;;;;;;;5135383;27;20211;-71
2023/04/26 05:59:36;;;;;;;11.68;7.50;;;;;;;;;;5134552;27;20198;-72
2023/04/26 06:02:03;;;;;;;8.73;7.07;;;;;;;;;;5135635;27;20194;-71
2023/04/26 06:04:31;;;;;;;11.20;8.05;;;;;;;;;;5135867;27;20197;-72
2023/04/26 06:06:59;;;;;;;12.60;7.47;;;;;;;;;;5135002;27;20649;-71
2023/04/26 06:09:26;;;;;;;14.77;8.65;;;;;;;;;;5135274;27;20198;-71
2023/04/26 06:11:53;;;;;;;12.32;7.75;;;;;;;;;;5134890;27;20630;-71
2023/04/26 06:14:20;;;;;;;12.27;8.02;;;;;;;;;;5135266;27;20569;-71
2023/04/26 06:16:49;;;;;;;15.75;7.10;;;;;;;;;;5134774;27;20235;-71
2023/04/26 06:19:16;;;;;;;11.18;7.70;;;;;;;;;;5134819;27;20206;-71
2023/04/26 06:21:43;;;;;;;13.32;8.90;;;;;;;;;;5134648;27;20202;-71
2023/04/26 06:24:11;;;;;;;11.05;7.75;;;;;;;;;;5135105;27;20226;-71
2023/04/26 06:26:38;;;;;;;14.13;7.13;;;;;;;;;;5134597;27;20731;-71
2023/04/26 06:29:05;;;;;;;15.75;7.63;;;;;;;;;;5134619;27;20728;-71
2023/04/26 06:31:33;;;;;;;13.38;7.80;;;;;;;;;;5134504;27;20207;-71
2023/04/26 06:34:02;;;;;;;17.45;7.70;;;;;;;;;;5134446;27;20697;-71
2023/04/26 06:36:30;;;;;;;10.25;7.45;;;;;;;;;;5134916;27;20199;-71
2023/04/26 06:38:57;;;;;;;9.10;5.80;;;;;;;;;;5135001;27;20200;-71
2023/04/26 06:41:24;;;;;;;12.68;6.78;;;;;;;;;;5134962;27;20193;-71
2023/04/26 06:43:52;;;;;;;13.32;6.70;;;;;;;;;;5134718;27;20213;-71
2023/04/26 06:46:19;;;;;;;8.05;5.95;;;;;;;;;;5134108;27;20196;-71
2023/04/26 06:48:46;;;;;;;13.68;6.57;;;;;;;;;;5134673;27;20198;-72
2023/04/26 06:51:15;;;;;;;15.68;6.88;;;;;;;;;;5135012;27;20302;-71
2023/04/26 06:53:42;;;;;;;9.98;6.28;;;;;;;;;;5134268;27;20645;-72
2023/04/26 06:56:10;;;;;;;11.80;6.90;;;;;;;;;;5134510;27;20223;-71
2023/04/26 06:58:37;;;;;;;7.88;5.78;;;;;;;;;;5134232;27;20649;-71
2023/04/26 07:01:07;;;;;;;10.38;5.95;;;;;;;;;;5134608;27;20195;-71
2023/04/26 07:03:34;;;;;;;14.40;7.28;;;;;;;;;;5134377;27;20192;-71
2023/04/26 07:06:01;;;;;;;7.43;5.40;;;;;;;;;;5134015;28;20196;-71
2023/04/26 07:08:30;;;;;;;15.57;6.53;;;;;;;;;;5134086;28;20196;-71
2023/04/26 07:10:57;;;;;;;13.07;6.22;;;;;;;;;;5134613;27;20195;-72
2023/04/26 07:13:24;;;;;;;9.30;5.80;;;;;;;;;;5137863;27;20204;-72
2023/04/26 07:15:51;;;;;;;11.60;6.13;;;;;;;;;;5138414;27;20224;-72
2023/04/26 07:18:18;;;;;;;7.63;5.85;;;;;;;;;;5138448;27;20256;-72
2023/04/26 07:20:46;;;;;;;7.00;5.93;;;;;;;;;;5138220;27;20192;-72
2023/04/26 07:23:14;;;;;;;9.45;5.88;;;;;;;;;;5138577;27;20287;-72
2023/04/26 07:25:42;;;;;;;11.52;5.93;;;;;;;;;;5138404;27;20623;-73
2023/04/26 07:28:10;;;;;;;16.27;5.75;;;;;;;;;;5138571;27;20275;-72
2023/04/26 07:30:37;;;;;;;9.82;5.32;;;;;;;;;;5138741;27;20275;-72
2023/04/26 07:33:04;;;;;;;9.32;5.60;;;;;;;;;;5138226;27;20380;-72
2023/04/26 07:35:34;;;;;;;12.32;6.22;;;;;;;;;;5138469;27;20563;-72
2023/04/26 07:38:01;;;;;;;8.75;5.72;;;;;;;;;;5137869;27;20241;-72
2023/04/26 07:40:30;;;;;;;13.52;6.30;;;;;;;;;;5138293;27;20294;-72
2023/04/26 07:42:58;;;;;;;11.60;5.65;;;;;;;;;;5138078;27;20237;-72
2023/04/26 07:45:26;;;;;;;6.15;3.72;;;;;;;;;;5137990;27;20196;-72
2023/04/26 07:47:53;;;;;;;9.05;3.80;;;;;;;;;;5138036;27;20194;-72
2023/04/26 07:50:20;;;;;;;5.85;4.00;;;;;;;;;;5137957;27;20641;-72
2023/04/26 07:52:47;;;;;;;4.95;3.97;;;;;;;;;;5137673;27;20556;-72
2023/04/26 07:55:14;;;;;;;9.32;4.30;;;;;;;;;;5137816;27;20739;-72
2023/04/26 07:57:42;;;;;;;5.72;4.20;;;;;;;;;;5138026;27;20244;-72
2023/04/26 08:00:11;;;;;;;8.98;3.53;;;;;;;;;;5137883;27;20196;-72
2023/04/26 08:02:38;;;;;;;7.13;2.97;;;;;;;;;;5137388;27;20200;-72
2023/04/26 08:05:06;;;;;;;4.05;2.97;;;;;;;;;;5138403;27;20202;-72
2023/04/26 08:07:33;;;;;;;12.15;4.20;;;;;;;;;;5137287;27;20287;-72
2023/04/26 08:10:00;;;;;;;6.13;3.45;;;;;;;;;;5137324;27;20196;-72
2023/04/26 08:12:27;;;;;;;8.88;3.80;;;;;;;;;;5137301;27;20684;-72
2023/04/26 08:14:55;;;;;;;10.43;3.30;;;;;;;;;;5137441;27;20695;-72
2023/04/26 08:17:23;;;;;;;8.27;2.92;;;;;;;;;;5137015;27;20530;-72
2023/04/26 08:19:50;;;;;;;4.47;3.72;;;;;;;;;;5137045;27;20645;-72
2023/04/26 08:22:18;;;;;;;10.60;3.40;;;;;;;;;;5137154;27;20219;-73
2023/04/26 08:24:48;;;;;;;3.92;3.05;;;;;;;;;;5137271;27;20488;-72
2023/04/26 08:27:16;;;;;;;6.13;2.90;;;;;;;;;;5137172;27;20184;-72
2023/04/26 08:29:43;;;;;;;7.93;2.90;;;;;;;;;;5137283;27;20441;-72
2023/04/26 08:32:10;;;;;;;4.95;3.22;;;;;;;;;;5137359;27;20199;-72
2023/04/26 08:34:39;;;;;;;6.65;3.53;;;;;;;;;;5137034;27;20193;-72
2023/04/26 08:37:07;;;;;;;7.47;3.05;;;;;;;;;;5136987;27;20188;-72
2023/04/26 08:39:34;;;;;;;7.03;3.40;;;;;;;;;;5137022;27;20618;-72
2023/04/26 08:42:07;;;;;;;8.90;4.45;;;;;;;;;;5137135;27;20198;-72
2023/04/26 08:44:35;;;;;;;6.90;3.50;;;;;;;;;;5136627;27;20185;-72
2023/04/26 08:47:06;;;;;;;5.68;3.50;;;;;;;;;;5137097;27;20445;-72
2023/04/26 08:49:40;;;;;;;10.52;4.22;;;;;;;;;;5137041;27;20176;-73
2023/04/26 08:52:10;;;;;;;8.57;3.00;;;;;;;;;;5136695;27;20628;-72
2023/04/26 08:54:38;;;;;;;8.27;3.20;;;;;;;;;;5136630;27;20196;-73
2023/04/26 08:57:06;;;;;;;4.85;3.47;;;;;;;;;;5136627;27;20200;-72
2023/04/26 08:59:34;;;;;;;9.20;3.90;;;;;;;;;;5136435;27;20279;-72
2023/04/26 09:02:02;;;;;;;6.83;3.33;;;;;;;;;;5136162;27;20487;-73
2023/04/26 09:04:30;;;;;;;4.53;3.83;;;;;;;;;;5136413;27;20456;-73
2023/04/26 09:07:00;;;;;;;4.67;3.50;;;;;;;;;;5136353;27;20649;-73
2023/04/26 09:09:29;;;;;;;4.67;3.20;;;;;;;;;;5136361;27;20935;-72
2023/04/26 09:11:56;;;;;;;9.98;4.28;;;;;;;;;;5136033;27;20971;-72
2023/04/26 09:14:24;;;;;;;4.17;3.00;;;;;;;;;;5136155;27;20192;-72
2023/04/26 09:16:52;;;;;;;9.13;3.37;;;;;;;;;;5136290;27;20983;-72
2023/04/26 09:19:19;;;;;;;6.97;2.73;;;;;;;;;;5136061;27;20438;-72
2023/04/26 09:21:47;;;;;;;3.10;2.53;;;;;;;;;;5136170;27;20445;-71
2023/04/26 09:24:14;;;;;;;4.57;2.70;;;;;;;;;;5136281;27;20478;-72
2023/04/26 09:26:43;;;;;;;2.97;2.67;;;;;;;;;;5135813;27;20446;-72
2023/04/26 09:29:14;;;;;;;7.93;3.03;;;;;;;;;;5135624;27;20433;-72
2023/04/26 09:31:42;;;;;;;6.67;3.37;;;;;;;;;;5136470;27;20859;-72
2023/04/26 09:34:10;;;;;;;3.33;2.40;;;;;;;;;;5135232;27;20498;-72
2023/04/26 09:36:47;;;;;;;3.63;2.40;;;;;;;;;;5135787;27;20212;-72
2023/04/26 09:39:14;;;;;;;7.30;3.05;;;;;;;;;;5135769;27;20452;-73
2023/04/26 09:41:46;;;;;;;3.45;3.17;;;;;;;;;;5135705;27;20192;-73
2023/04/26 09:44:22;;;;;;;2.60;2.40;;;;;;;;;;5135305;27;20197;-73
2023/04/26 09:47:00;;;;;;;8.00;2.43;;;;;;;;;;5135756;27;20448;-73
2023/04/26 09:49:27;;;;;;;7.77;2.70;;;;;;;;;;5135643;27;20442;-72
2023/04/26 09:52:01;;;;;;;5.43;2.23;;;;;;;;;;5135606;27;20524;-72
2023/04/26 09:54:42;;;;;;;4.93;2.77;;;;;;;;;;5135453;27;20444;-72
2023/04/26 09:57:11;;;;;;;2.80;2.57;;;;;;;;;;5135432;27;20471;-72
2023/04/26 09:59:42;;;;;;;4.40;2.80;;;;;;;;;;5135049;27;20441;-72
2023/04/26 10:02:11;;;;;;;4.23;3.10;;;;;;;;;;5135063;27;20438;-73
2023/04/26 10:04:39;;;;;;;4.77;2.63;;;;;;;;;;5135246;27;20438;-73
2023/04/26 10:07:06;;;;;;;5.87;3.17;;;;;;;;;;5135406;27;20434;-72
2023/04/26 10:09:33;;;;;;;3.23;2.80;;;;;;;;;;5134738;27;20931;-72
2023/04/26 10:12:02;;;;;;;6.73;2.70;;;;;;;;;;5134904;27;20434;-73
2023/04/26 10:14:31;;;;;;;6.43;2.70;;;;;;;;;;5135049;27;20537;-73
2023/04/26 10:16:58;;;;;;;4.20;3.10;;;;;;;;;;5134844;27;20497;-72
2023/04/26 10:19:26;;;;;;;7.30;2.90;;;;;;;;;;5134647;27;20471;-73
2023/04/26 10:21:54;;;;;;;4.60;2.50;;;;;;;;;;5134964;27;20439;-73
2023/04/26 10:24:23;;;;;;;5.10;2.65;;;;;;;;;;5134803;27;20207;-73
2023/04/26 10:26:52;;;;;;;3.57;3.27;;;;;;;;;;5134886;27;20228;-72
2023/04/26 10:29:19;;;;;;;7.20;3.33;;;;;;;;;;5134577;27;20930;-73
2023/04/26 10:32:05;;;;;;;4.37;3.10;;;;;;;;;;5134938;27;20469;-73
2023/04/26 10:34:35;;;;;;;3.03;2.67;;;;;;;;;;5134833;27;20511;-72
2023/04/26 10:37:09;;;;;;;7.63;2.40;;;;;;;;;;5134923;27;20465;-73
2023/04/26 10:39:37;;;;;;;10.70;3.83;;;;;;;;;;5134524;27;20443;-72
2023/04/26 10:42:21;;;;;;;3.83;3.10;;;;;;;;;;5134996;27;20444;-72
2023/04/26 10:44:49;;;;;;;2.83;2.63;;;;;;;;;;5134703;27;20453;-73
2023/04/26 10:47:24;;;;;;;11.87;2.80;;;;;;;;;;5134217;27;20449;-72
2023/04/26 10:49:52;;;;;;;3.47;3.17;;;;;;;;;;5134388;27;20445;-73
2023/04/26 10:52:21;;;;;;;6.83;3.03;;;;;;;;;;5134185;27;20434;-72
2023/04/26 10:54:56;;;;;;;5.13;2.57;;;;;;;;;;5134449;27;20446;-73
2023/04/26 10:57:24;;;;;;;5.90;2.93;;;;;;;;;;5134325;27;20577;-72
2023/04/26 11:00:13;;;;;;;12.60;3.50;;;;;;;;;;5134009;27;20442;-75
2023/04/26 11:02:46;;;;;;;4.80;2.67;;;;;;;;;;5135077;27;20445;-73
2023/04/26 11:05:33;;;;;;;8.30;3.77;;;;;;;;;;5134272;27;20452;-74
2023/04/26 11:08:08;;;;;;;3.70;3.13;;;;;;;;;;5134106;27;20438;-72
2023/04/26 11:10:37;;;;;;;8.30;3.57;;;;;;;;;;5134223;28;20438;-72
2023/04/26 11:13:04;;;;;;;4.00;2.93;;;;;;;;;;5134314;28;20860;-73
2023/04/26 11:15:32;;;;;;;4.23;2.80;;;;;;;;;;5134048;28;20506;-72
2023/04/26 11:18:00;;;;;;;5.23;3.20;;;;;;;;;;5133756;28;20470;-72
2023/04/26 11:20:32;;;;;;;7.57;3.60;;;;;;;;;;5134042;28;20474;-72
2023/04/26 11:22:59;;;;;;;4.40;3.47;;;;;;;;;;5133996;28;20438;-72
2023/04/26 11:25:27;;;;;;;6.20;3.93;;;;;;;;;;5133726;28;20931;-72
2023/04/26 11:27:59;;;;;;;6.13;3.60;;;;;;;;;;5134125;28;20591;-72
2023/04/26 11:30:28;;;;;;;4.73;4.33;;;;;;;;;;5134297;28;20473;-72
2023/04/26 11:32:55;;;;;;;7.00;4.30;;;;;;;;;;5133968;28;20446;-72
2023/04/26 11:35:23;;;;;;;6.70;3.73;;;;;;;;;;5133475;28;20439;-72
2023/04/26 11:37:53;;;;;;;5.03;3.43;;;;;;;;;;5134499;28;20461;-72
2023/04/26 11:40:20;;;;;;;7.80;4.10;;;;;;;;;;5133617;28;20950;-72
2023/04/26 11:42:48;;;;;;;5.10;3.17;;;;;;;;;;5133736;28;20448;-72
2023/04/26 11:45:18;;;;;;;7.30;3.40;;;;;;;;;;5134232;28;20446;-72
2023/04/26 11:47:46;;;;;;;4.23;3.30;;;;;;;;;;5134378;28;20449;-72
2023/04/26 11:50:13;;;;;;;4.03;3.07;;;;;;;;;;5134154;28;20492;-72
2023/04/26 11:52:41;;;;;;;4.40;3.13;;;;;;;;;;5134211;28;20533;-72
2023/04/26 11:55:10;;;;;;;3.90;3.00;;;;;;;;;;5133522;28;20444;-72
2023/04/26 11:57:37;;;;;;;5.83;3.50;;;;;;;;;;5134397;27;20489;-72
2023/04/26 12:00:13;;;;;;;5.03;3.07;;;;;;;;;;5137952;27;20437;-72
2023/04/26 12:02:40;;;;;;;5.07;3.20;;;;;;;;;;5137661;27;20441;-72
2023/04/26 12:05:09;;;;;;;3.30;3.00;;;;;;;;;;5137689;27;20445;-72
2023/04/26 12:07:37;;;;;;;3.20;2.70;;;;;;;;;;5137853;27;20480;-72
2023/04/26 12:10:18;;;;;;;4.70;3.10;;;;;;;;;;5137112;27;20434;-73
2023/04/26 12:12:48;;;;;;;3.77;2.90;;;;;;;;;;5137203;27;20948;-72
2023/04/26 12:15:15;;;;;;;4.33;3.40;;;;;;;;;;5137320;27;20446;-73
2023/04/26 12:17:52;;;;;;;4.53;3.33;;;;;;;;;;5137467;27;21016;-73
2023/04/26 12:20:19;;;;;;;5.23;3.90;;;;;;;;;;5137748;27;20729;-71
2023/04/26 12:22:57;;;;;;;5.40;2.80;;;;;;;;;;5137609;27;20923;-73
2023/04/26 12:25:26;;;;;;;3.40;2.87;;;;;;;;;;5137159;27;20622;-74
2023/04/26 12:27:53;;;;;;;3.83;3.07;;;;;;;;;;5136950;27;20446;-72
2023/04/26 12:30:21;;;;;;;10.10;3.10;;;;;;;;;;5137238;27;20521;-71
2023/04/26 12:32:48;;;;;;;4.23;3.00;;;;;;;;;;5136958;27;20441;-73
2023/04/26 12:35:16;;;;;;;8.00;3.20;;;;;;;;;;5136920;27;20448;-74
2023/04/26 12:37:43;;;;;;;5.10;3.50;;;;;;;;;;5135148;27;20478;-73
2023/04/26 12:40:11;;;;;;;4.57;3.40;;;;;;;;;;5136675;27;20442;-74
2023/04/26 12:42:40;;;;;;;4.03;3.10;;;;;;;;;;5137247;27;20434;-73
2023/04/26 12:45:07;;;;;;;3.27;2.87;;;;;;;;;;5136884;27;20437;-74
2023/04/26 12:47:35;;;;;;;4.20;3.33;;;;;;;;;;5136425;27;20449;-73
2023/04/26 12:50:03;;;;;;;11.83;3.57;;;;;;;;;;5137072;27;20442;-74
2023/04/26 12:52:31;;;;;;;7.33;4.07;;;;;;;;;;5136807;27;20442;-73
2023/04/26 12:54:58;;;;;;;5.20;3.30;;;;;;;;;;5136570;27;20450;-73
2023/04/26 12:57:25;;;;;;;3.88;3.30;;;;;;;;;;5136168;27;20469;-73
2023/04/26 12:59:55;;;;;;;5.10;3.30;;;;;;;;;;5136624;27;20199;-73
2023/04/26 13:02:23;;;;;;;7.70;4.80;;;;;;;;;;5136082;27;20495;-73
2023/04/26 13:04:50;;;;;;;8.40;3.33;;;;;;;;;;5135293;27;20465;-79
2023/04/26 13:07:18;;;;;;;4.37;3.17;;;;;;;;;;5128953;27;20445;-74
2023/04/26 13:09:45;;;;;;;3.40;3.10;;;;;;;;;;5113322;28;20799;-75
2023/04/26 13:12:13;;;;;;;4.63;3.50;;;;;;;;;;5114740;28;20284;-75
2023/04/26 13:14:40;;;;;;;4.60;4.03;;;;;;;;;;5114810;28;20439;-74
2023/04/26 13:17:09;;;;;;;5.17;3.40;;;;;;;;;;5114430;28;20537;-74
2023/04/26 13:19:37;;;;;;;4.00;3.42;;;;;;;;;;5115231;28;20450;-75
2023/04/26 13:22:07;;;;;;;5.80;3.40;;;;;;;;;;5114814;28;20545;-74
2023/04/26 13:24:34;;;;;;;4.27;3.67;;;;;;;;;;5115216;28;20499;-74
2023/04/26 13:27:02;;;;;;;7.57;3.50;;;;;;;;;;5115220;28;20443;-75
2023/04/26 13:29:30;;;;;;;4.10;3.70;;;;;;;;;;5115803;28;20468;-75
2023/04/26 13:31:58;;;;;;;8.53;4.03;;;;;;;;;;5115197;28;20434;-75
2023/04/26 13:34:26;;;;;;;5.20;3.63;;;;;;;;;;5114831;28;20473;-75
2023/04/26 13:36:55;;;;;;;5.20;3.70;;;;;;;;;;5114564;28;20601;-75
2023/04/26 13:39:23;;;;;;;5.07;3.30;;;;;;;;;;5115768;28;20861;-73
2023/04/26 13:41:50;;;;;;;5.63;3.33;;;;;;;;;;5114388;28;20461;-76
2023/04/26 13:44:18;;;;;;;3.77;3.30;;;;;;;;;;5115027;28;20442;-75
2023/04/26 13:46:46;;;;;;;6.73;3.50;;;;;;;;;;5115127;28;20458;-76
2023/04/26 13:49:13;;;;;;;4.70;3.70;;;;;;;;;;5114693;28;20448;-73
2023/04/26 13:51:42;;;;;;;4.27;3.03;;;;;;;;;;5115130;28;20464;-73
2023/04/26 13:54:10;;;;;;;6.13;3.77;;;;;;;;;;5114495;28;20447;-73
2023/04/26 13:56:38;;;;;;;3.40;3.10;;;;;;;;;;5114300;28;20475;-73
2023/04/26 13:59:06;;;;;;;5.03;3.87;;;;;;;;;;5114308;28;20451;-74
2023/04/26 14:01:35;;;;;;;5.87;3.83;;;;;;;;;;5114104;28;20449;-73
2023/04/26 14:04:03;;;;;;;4.43;3.10;;;;;;;;;;5114295;28;20787;-73
2023/04/26 14:06:31;;;;;;;3.40;3.00;;;;;;;;;;5114704;28;20436;-73
2023/04/26 14:09:00;;;;;;;3.10;2.83;;;;;;;;;;5114038;28;20435;-73
2023/04/26 14:11:27;;;;;;;7.07;4.43;;;;;;;;;;5114746;28;20522;-73
2023/04/26 14:13:55;;;;;;;5.87;3.53;;;;;;;;;;5114544;28;20434;-73
2023/04/26 14:16:23;;;;;;;5.80;3.67;;;;;;;;;;5113942;28;20908;-74
2023/04/26 14:18:50;;;;;;;4.23;3.00;;;;;;;;;;5114139;28;20443;-74
2023/04/26 14:21:18;;;;;;;12.67;3.00;;;;;;;;;;5113265;28;20794;-74
2023/04/26 14:23:45;;;;;;;3.97;3.40;;;;;;;;;;5113863;28;20442;-73
2023/04/26 14:26:14;;;;;;;5.50;3.50;;;;;;;;;;5113886;28;20444;-74
2023/04/26 14:28:41;;;;;;;4.93;3.20;;;;;;;;;;5114356;28;20435;-74
2023/04/26 14:31:08;;;;;;;7.07;3.50;;;;;;;;;;5113856;28;20435;-74
2023/04/26 14:33:35;;;;;;;5.53;3.23;;;;;;;;;;5113815;28;20444;-75
2023/04/26 14:36:03;;;;;;;4.77;3.80;;;;;;;;;;5114047;28;20444;-74
2023/04/26 14:38:30;;;;;;;4.23;3.20;;;;;;;;;;5113748;28;20476;-74
2023/04/26 14:40:57;;;;;;;3.20;2.80;;;;;;;;;;5113279;28;20435;-74
2023/04/26 14:43:26;;;;;;;4.40;3.13;;;;;;;;;;5113401;28;20522;-74